Terminal Aerodrome Forecast
Issued by NWS

Home | Current Version | Previous Version | Text Only | Print | Product List | Glossary On
Versions: 1 2 3 4 5 6 7 8 9 10 11 12 13 14 15 16 17 18 19 20
000
FTUS43 KAPX 261120
TAFPLN
TAF
KPLN 261120Z 2612/2712 21012G20KT P6SM -SHRA VCTS OVC045CB
      WS020/21040KT
     FM261400 22013G21KT P6SM -SHRA OVC060
     FM261600 23013G21KT P6SM VCSH OVC035
     FM261900 24012KT P6SM VCSH BKN035
     FM262300 26008KT P6SM VCSH BKN030
     FM270400 VRB03KT P6SM BKN070=

USA.gov is the U.S. government's official web portal to all federal, state and local government web resources and services.